EZY56TR LXGB-EGGD
Flight info
| Callsign | EZY56TR |
|---|---|
| Flight time | N/A |
| Altitude | 36000 |
| Route | PIMOS M985 MGA DCT BLN DCT MORAL DCT BEXID DCT VTB DCT SIE DCT XERMA DCT ARLUN DCT BUGIX DCT UNGAS DCT DELOG DCT NOVAN DCT RUSIB DCT NOZHU DCT SHIRI DCT TOJAQ |
| Aircraft | A320/M-SDE2E3FGHIJ1RWXYZ/LB1 |
Departure
| Time | N/A |
|---|---|
| Airport | Gibraltar Airport (LXGB) |
Arrival
| Time | 2026-05-04 23:59 |
|---|---|
| Airport | Bristol Airport (EGGD) |
| Time | Latitude | Longitude | Altitude | Speed | Heading |
|---|---|---|---|---|---|
| 2026-05-04 23:46 | 50.98710 | -3.49925 | 15221 ft | 356 kts | 45° |
| 2026-05-04 23:47 | 51.00438 | -3.46888 | 14857 ft | 354 kts | 44° |
| 2026-05-04 23:47 | 51.02125 | -3.44003 | 14511 ft | 351 kts | 43° |
| 2026-05-04 23:47 | 51.03831 | -3.41147 | 14213 ft | 347 kts | 43° |
| 2026-05-04 23:47 | 51.05578 | -3.38689 | 13957 ft | 336 kts | 25° |
| 2026-05-04 23:48 | 51.07757 | -3.37437 | 13669 ft | 316 kts | 1° |
| 2026-05-04 23:48 | 51.09920 | -3.37060 | 13388 ft | 309 kts | 355° |
| 2026-05-04 23:48 | 51.12047 | -3.36814 | 13091 ft | 308 kts | 356° |
| 2026-05-04 23:48 | 51.14228 | -3.36456 | 12787 ft | 309 kts | 358° |
| 2026-05-04 23:49 | 51.16398 | -3.36085 | 12481 ft | 308 kts | 358° |
| 2026-05-04 23:49 | 51.18554 | -3.35724 | 12176 ft | 306 kts | 358° |
| 2026-05-04 23:49 | 51.20708 | -3.35371 | 11870 ft | 304 kts | 358° |
| 2026-05-04 23:49 | 51.22804 | -3.35029 | 11571 ft | 302 kts | 358° |
| 2026-05-04 23:50 | 51.24936 | -3.34675 | 11030 ft | 306 kts | 359° |
| 2026-05-04 23:50 | 51.27074 | -3.34312 | 10441 ft | 298 kts | 359° |
| 2026-05-04 23:50 | 51.29136 | -3.33959 | 9857 ft | 290 kts | 359° |
| 2026-05-04 23:50 | 51.31124 | -3.33622 | 9323 ft | 280 kts | 359° |
| 2026-05-04 23:51 | 51.33065 | -3.33307 | 8862 ft | 279 kts | 359° |
| 2026-05-04 23:51 | 51.35001 | -3.33008 | 8675 ft | 270 kts | 359° |
| 2026-05-04 23:51 | 51.36847 | -3.32442 | 8473 ft | 270 kts | 17° |
| 2026-05-04 23:51 | 51.38407 | -3.30636 | 8292 ft | 274 kts | 42° |
| 2026-05-04 23:52 | 51.39601 | -3.28297 | 8134 ft | 268 kts | 47° |
| 2026-05-04 23:52 | 51.40694 | -3.25900 | 7974 ft | 260 kts | 50° |
| 2026-05-04 23:52 | 51.41476 | -3.23265 | 7786 ft | 262 kts | 77° |
| 2026-05-04 23:52 | 51.41385 | -3.20322 | 7619 ft | 259 kts | 107° |
| 2026-05-04 23:53 | 51.40686 | -3.17652 | 7470 ft | 251 kts | 116° |
| 2026-05-04 23:53 | 51.39884 | -3.15190 | 7313 ft | 243 kts | 118° |
| 2026-05-04 23:53 | 51.39072 | -3.12809 | 7156 ft | 235 kts | 118° |
| 2026-05-04 23:53 | 51.38285 | -3.10546 | 7077 ft | 221 kts | 118° |
| 2026-05-04 23:54 | 51.37550 | -3.08385 | 6809 ft | 217 kts | 112° |
| 2026-05-04 23:54 | 51.37089 | -3.06068 | 6410 ft | 216 kts | 96° |
| 2026-05-04 23:54 | 51.36972 | -3.03697 | 6112 ft | 209 kts | 84° |
| 2026-05-04 23:54 | 51.37077 | -3.01355 | 5822 ft | 203 kts | 78° |
| 2026-05-04 23:55 | 51.37218 | -2.99112 | 5580 ft | 197 kts | 79° |
| 2026-05-04 23:55 | 51.37329 | -2.96921 | 5290 ft | 194 kts | 80° |
| 2026-05-04 23:55 | 51.37492 | -2.92641 | 4316 ft | 191 kts | 82° |
| 2026-05-04 23:56 | 51.37568 | -2.90500 | 3752 ft | 185 kts | 82° |
| 2026-05-04 23:56 | 51.37636 | -2.88523 | 3466 ft | 167 kts | 82° |
| 2026-05-04 23:56 | 51.37702 | -2.86711 | 3217 ft | 159 kts | 82° |
| 2026-05-04 23:56 | 51.37770 | -2.84929 | 2958 ft | 154 kts | 83° |
| 2026-05-04 23:57 | 51.37827 | -2.83190 | 2487 ft | 155 kts | 83° |
| 2026-05-04 23:57 | 51.37898 | -2.81486 | 2113 ft | 149 kts | 83° |
| 2026-05-04 23:57 | 51.37968 | -2.79834 | 1703 ft | 148 kts | 84° |
| 2026-05-04 23:57 | 51.38039 | -2.78152 | 1283 ft | 146 kts | 85° |
| 2026-05-04 23:58 | 51.38099 | -2.76570 | 1011 ft | 134 kts | 85° |
| 2026-05-04 23:58 | 51.38139 | -2.75068 | 840 ft | 132 kts | 85° |
| 2026-05-04 23:58 | 51.38202 | -2.73575 | 678 ft | 133 kts | 85° |
| 2026-05-04 23:58 | 51.38258 | -2.72129 | 610 ft | 107 kts | 85° |
| 2026-05-04 23:59 | 51.38286 | -2.71415 | 602 ft | 20 kts | 86° |
| 2026-05-04 23:59 | 51.38288 | -2.71356 | 602 ft | 2 kts | 86° |
| 2026-05-04 23:59 | 51.38291 | -2.71292 | 603 ft | 8 kts | 86° |
| 2026-05-04 23:59 | 51.38297 | -2.71153 | 603 ft | 18 kts | 86° |
| 2026-05-05 00:00 | 51.38301 | -2.71035 | 603 ft | 19 kts | 86° |
| 2026-05-05 00:00 | 51.38304 | -2.70963 | 603 ft | 19 kts | 85° |
| 2026-05-05 00:00 | 51.38410 | -2.70723 | 603 ft | 17 kts | 17° |
| 2026-05-05 00:00 | 51.38464 | -2.70812 | 600 ft | 14 kts | 258° |
| 2026-05-05 00:01 | 51.38460 | -2.70977 | 600 ft | 12 kts | 269° |
| 2026-05-05 00:01 | 51.38466 | -2.71108 | 600 ft | 11 kts | 295° |
| 2026-05-05 00:01 | 51.38529 | -2.71149 | 597 ft | 7 kts | 356° |
| 2026-05-05 00:01 | 51.38546 | -2.71150 | 596 ft | 0 kts | 357° |